Stanton, Texas
Current Conditions -  °F | °C
As of 12:55 PM on Sunday 23 Nov 2014 (Local Time) from KBPG Reporting Station
Broken Clouds Broken Clouds  
Wind Chill: 73°   Ceiling: 3400
Heat Index: 73°   Visibility: 7mi
Dew Point: 31°   Wind: 31mph
Humidity: 21%   Direction: 280°W
Pressure: 29.64"   Gusts: 40mph
Location:  32.13°N, 101.79°W
Report Text: KBPG 231855Z AUTO 28027G35KT 7SM SCT026 BKN034 23/M01 A2964 RMK AO2 T02291007
Loading
Personal Weather Stations






























Interactive Weather Map New forecast layout! Learn more

10-Day Weather Forecast

Advertisements
Track Severe Weather on mobile